createdAt,value
2023-03-04T00:00:43.319Z,25.55
2023-03-04T00:06:05.507Z,15.05
2023-03-04T00:08:39.675Z,20.27
2023-03-04T00:16:00.382Z,20.75
2023-03-04T00:18:33.640Z,16.15
2023-03-04T00:21:04.423Z,22.08
2023-03-04T00:23:42.246Z,21.02
2023-03-04T00:29:39.287Z,17.70
2023-03-04T00:32:07.993Z,14.55
2023-03-04T00:34:46.036Z,19.67
2023-03-04T00:37:23.700Z,21.50
2023-03-04T00:39:55.471Z,21.27
2023-03-04T00:42:43.800Z,12.38
2023-03-04T00:49:17.387Z,23.05
2023-03-04T00:52:16.301Z,16.48
2023-03-04T00:55:01.021Z,13.38
2023-03-04T00:57:36.836Z,19.33
2023-03-04T01:00:16.240Z,19.15
2023-03-04T01:03:05.304Z,21.42
2023-03-04T01:05:36.059Z,24.00
2023-03-04T01:08:09.004Z,23.02
2023-03-04T01:10:59.944Z,12.43
2023-03-04T01:13:50.020Z,16.02
2023-03-04T01:16:49.603Z,18.30
2023-03-04T01:19:18.465Z,21.65
2023-03-04T01:21:55.433Z,20.88
2023-03-04T01:24:51.681Z,13.43
2023-03-04T01:27:31.068Z,19.70
2023-03-04T01:33:17.104Z,21.05
2023-03-04T01:35:45.796Z,18.63
2023-03-04T01:39:01.720Z,13.50
2023-03-04T01:42:00.639Z,14.50
2023-03-04T01:45:01.139Z,15.88
2023-03-04T01:47:49.925Z,16.77
2023-03-04T01:50:49.830Z,20.10
2023-03-04T01:53:31.028Z,12.00
2023-03-04T02:01:00.254Z,13.27
2023-03-04T02:03:36.458Z,17.92
2023-03-04T02:06:15.031Z,14.73
2023-03-04T02:08:46.601Z,18.15
2023-03-04T02:11:26.592Z,17.55
2023-03-04T02:13:55.245Z,12.18
2023-03-04T02:16:38.279Z,19.40
2023-03-04T02:19:31.683Z,14.95
2023-03-04T02:22:01.515Z,13.57
2023-03-04T02:24:40.057Z,15.05
2023-03-04T02:27:11.828Z,12.10
2023-03-04T02:29:43.757Z,12.43
2023-03-04T02:32:46.452Z,15.27
2023-03-04T02:35:45.402Z,17.27
2023-03-04T02:38:17.094Z,12.30
2023-03-04T02:40:54.049Z,17.27
2023-03-04T02:43:23.954Z,10.32
2023-03-04T02:45:57.653Z,11.23
2023-03-04T02:48:48.238Z,12.18
2023-03-04T02:51:22.824Z,13.27
2023-03-04T02:53:52.982Z,20.88
2023-03-04T02:56:42.586Z,18.48
2023-03-04T02:59:23.072Z,17.27
2023-03-04T03:01:55.741Z,12.27
2023-03-04T03:04:34.531Z,10.95
2023-03-04T03:07:14.859Z,9.38
2023-03-04T03:10:41.808Z,9.25
2023-03-04T03:13:44.276Z,15.45
2023-03-04T03:16:23.729Z,12.02
2023-03-04T03:19:03.412Z,15.73
2023-03-04T03:21:32.740Z,12.65
2023-03-04T03:24:09.414Z,15.00
2023-03-04T03:26:49.422Z,10.02
2023-03-04T03:29:31.864Z,12.52
2023-03-04T03:32:34.999Z,14.07
2023-03-04T03:35:04.711Z,10.60
2023-03-04T03:37:37.728Z,15.90
2023-03-04T03:40:11.066Z,14.02
2023-03-04T03:43:28.286Z,10.05
2023-03-04T03:45:34.313Z,9.20
2023-03-04T03:48:25.371Z,9.23
2023-03-04T03:50:54.745Z,19.13
2023-03-04T03:53:30.595Z,12.13
2023-03-04T03:56:08.196Z,8.23
2023-03-04T03:58:52.880Z,14.40
2023-03-04T04:01:47.486Z,8.05
2023-03-04T04:04:22.566Z,19.88
2023-03-04T04:06:55.871Z,9.52
2023-03-04T04:09:26.985Z,11.27
2023-03-04T04:11:57.574Z,16.35
2023-03-04T04:14:29.828Z,13.15
2023-03-04T04:17:00.869Z,17.10
2023-03-04T04:19:31.651Z,12.23
2023-03-04T04:22:04.411Z,18.42
2023-03-04T04:24:44.166Z,10.15
2023-03-04T04:27:27.973Z,12.43
2023-03-04T04:30:13.782Z,13.77
2023-03-04T04:33:05.040Z,13.25
2023-03-04T04:35:51.691Z,8.32
2023-03-04T04:38:21.737Z,20.98
2023-03-04T04:43:24.012Z,15.63
2023-03-04T04:49:26.017Z,14.68
2023-03-04T04:51:54.454Z,14.02
2023-03-04T04:54:29.881Z,10.27
2023-03-04T04:56:58.493Z,14.98
2023-03-04T04:59:28.597Z,15.85
2023-03-04T05:02:10.411Z,12.77
2023-03-04T05:05:00.104Z,17.98
2023-03-04T05:07:50.283Z,14.85
2023-03-04T05:10:46.818Z,17.45
2023-03-04T05:13:32.893Z,2.97
2023-03-04T05:16:07.083Z,16.10
2023-03-04T05:18:46.287Z,10.63
2023-03-04T05:21:15.593Z,13.45
2023-03-04T05:23:44.938Z,13.38
2023-03-04T05:26:17.104Z,13.13
2023-03-04T05:28:56.641Z,10.90
2023-03-04T05:31:33.039Z,13.35
2023-03-04T05:34:03.131Z,15.10
2023-03-04T05:36:35.487Z,15.98
2023-03-04T05:39:07.878Z,16.00
2023-03-04T05:41:36.954Z,18.80
2023-03-04T05:44:05.553Z,12.63
2023-03-04T05:46:37.050Z,15.20
2023-03-04T05:49:05.705Z,15.82
2023-03-04T05:51:41.858Z,15.23
2023-03-04T05:54:23.816Z,16.65
2023-03-04T05:57:06.800Z,17.63
2023-03-04T05:59:35.347Z,12.48
2023-03-04T06:02:05.492Z,14.10
2023-03-04T06:04:34.257Z,11.43
2023-03-04T06:07:03.025Z,14.80
2023-03-04T06:09:41.175Z,10.93
2023-03-04T06:12:09.961Z,17.38
2023-03-04T06:14:39.735Z,22.90
2023-03-04T06:17:16.376Z,13.68
2023-03-04T06:19:53.949Z,10.73
2023-03-04T06:22:22.784Z,17.48
2023-03-04T06:24:52.440Z,13.38
2023-03-04T06:27:23.730Z,18.42
2023-03-04T06:29:52.451Z,11.18
2023-03-04T06:32:21.478Z,12.55
2023-03-04T06:34:50.036Z,18.80
2023-03-04T06:37:22.464Z,13.90
2023-03-04T06:39:51.384Z,14.10
2023-03-04T06:42:20.539Z,17.23
2023-03-04T06:44:51.066Z,19.30
2023-03-04T06:47:26.293Z,10.83
2023-03-04T06:50:11.220Z,11.18
2023-03-04T06:52:41.389Z,14.30
2023-03-04T06:55:10.296Z,5.88
2023-03-04T06:57:43.285Z,13.65
2023-03-04T07:00:16.471Z,11.98
2023-03-04T07:02:48.128Z,11.98
2023-03-04T07:05:16.796Z,16.67
2023-03-04T07:07:46.133Z,11.32
2023-03-04T07:10:20.507Z,8.35
2023-03-04T07:12:49.718Z,4.45
2023-03-04T07:18:27.946Z,12.02
2023-03-04T07:21:03.270Z,11.43
2023-03-04T07:23:32.436Z,11.35
2023-03-04T07:26:01.122Z,8.52
2023-03-04T07:28:36.451Z,17.23
2023-03-04T07:31:11.099Z,8.60
2023-03-04T07:33:53.244Z,14.93
2023-03-04T07:36:23.759Z,11.95
2023-03-04T07:38:55.249Z,15.40
2023-03-04T07:41:26.351Z,12.55
2023-03-04T07:43:58.057Z,7.43
2023-03-04T07:46:35.816Z,14.88
2023-03-04T07:49:11.290Z,17.85
2023-03-04T07:51:49.831Z,14.63
2023-03-04T07:55:11.440Z,8.18
2023-03-04T07:57:18.647Z,11.07
2023-03-04T08:00:29.967Z,6.97
2023-03-04T08:02:59.078Z,7.95
2023-03-04T08:05:31.048Z,13.65
2023-03-04T08:08:08.669Z,9.55
2023-03-04T08:11:24.945Z,12.93
2023-03-04T08:17:46.125Z,16.08
2023-03-04T08:20:17.076Z,15.23
2023-03-04T08:22:46.127Z,15.00
2023-03-04T08:25:14.592Z,8.45
2023-03-04T08:27:43.450Z,12.90
2023-03-04T08:30:12.189Z,9.45
2023-03-04T08:32:41.158Z,5.88
2023-03-04T08:35:09.662Z,9.82
2023-03-04T08:37:40.695Z,18.35
2023-03-04T08:40:16.570Z,11.75
2023-03-04T08:42:45.380Z,6.88
2023-03-04T08:45:14.533Z,12.85
2023-03-04T08:47:44.670Z,9.57
2023-03-04T08:50:15.657Z,16.10
2023-03-04T08:52:44.576Z,15.23
2023-03-04T08:55:13.098Z,11.27
2023-03-04T08:57:46.527Z,15.02
2023-03-04T09:00:27.049Z,10.30
2023-03-04T09:07:08.425Z,8.88
2023-03-04T09:09:55.062Z,6.72
2023-03-04T09:10:00.611Z,13.50
2023-03-04T09:20:24.005Z,18.17
2023-03-04T09:22:52.460Z,9.15
2023-03-04T09:25:24.909Z,5.65
2023-03-04T09:27:54.007Z,12.52
2023-03-04T09:30:29.923Z,13.45
2023-03-04T09:33:01.640Z,16.38
2023-03-04T09:35:30.767Z,8.27
2023-03-04T09:37:59.854Z,12.45
2023-03-04T09:40:50.122Z,11.35
2023-03-04T09:43:29.649Z,11.80
2023-03-04T09:46:03.484Z,7.70
2023-03-04T09:48:57.780Z,10.70
2023-03-04T09:51:57.482Z,11.68
2023-03-04T09:55:00.446Z,12.55
2023-03-04T09:57:41.537Z,11.20
2023-03-04T10:00:40.543Z,13.60
2023-03-04T10:03:28.851Z,7.45
2023-03-04T10:06:06.245Z,9.05
2023-03-04T10:08:59.560Z,5.40
2023-03-04T10:11:34.494Z,7.10
2023-03-04T10:14:28.130Z,6.15
2023-03-04T10:17:19.274Z,8.00
2023-03-04T10:20:16.763Z,10.20
2023-03-04T10:22:56.622Z,10.32
2023-03-04T10:25:33.068Z,10.75
2023-03-04T10:28:16.581Z,11.88
2023-03-04T10:31:01.284Z,7.40
2023-03-04T10:33:31.996Z,6.13
2023-03-04T10:36:16.187Z,5.13
2023-03-04T10:38:45.823Z,9.05
2023-03-04T10:41:22.639Z,9.95
2023-03-04T10:44:10.935Z,10.63
2023-03-04T10:46:49.875Z,13.48
2023-03-04T10:49:21.420Z,13.55
2023-03-04T10:52:31.038Z,13.70
2023-03-04T10:55:02.737Z,10.45
2023-03-04T11:00:04.408Z,9.30
2023-03-04T11:02:36.498Z,11.70
2023-03-04T11:05:20.840Z,13.63
2023-03-04T11:07:56.331Z,10.13
2023-03-04T11:10:39.773Z,9.52
2023-03-04T11:13:11.661Z,10.32
2023-03-04T11:15:59.481Z,9.10
2023-03-04T11:18:38.544Z,11.55
2023-03-04T11:21:13.266Z,5.47
2023-03-04T11:24:00.338Z,5.68
2023-03-04T11:26:37.096Z,2.85
2023-03-04T11:29:27.175Z,4.25
2023-03-04T11:32:01.196Z,3.58
2023-03-04T11:34:51.904Z,2.05
2023-03-04T11:37:35.737Z,2.63
2023-03-04T11:40:07.555Z,3.00
2023-03-04T11:42:57.778Z,1.40
2023-03-04T11:45:51.485Z,3.35
2023-03-04T11:48:26.004Z,2.92
2023-03-04T11:51:02.275Z,1.25
2023-03-04T11:53:59.404Z,4.30
2023-03-04T11:56:43.894Z,4.15
2023-03-04T11:59:38.039Z,4.43
2023-03-04T12:02:16.748Z,3.25
2023-03-04T12:05:17.306Z,5.53
2023-03-04T12:08:00.344Z,10.38
2023-03-04T12:10:40.934Z,13.00
2023-03-04T12:13:31.323Z,1.88
2023-03-04T12:16:12.537Z,2.75
2023-03-04T12:18:55.932Z,0.90
2023-03-04T12:21:46.170Z,3.47
2023-03-04T12:24:31.571Z,1.15
2023-03-04T12:27:24.504Z,4.03
2023-03-04T12:32:37.305Z,2.35
2023-03-04T12:35:46.991Z,3.70
2023-03-04T12:38:29.308Z,3.47
2023-03-04T12:41:16.441Z,1.80
2023-03-04T12:43:47.931Z,2.08
2023-03-04T12:46:42.056Z,6.10
2023-03-04T12:49:22.392Z,2.88
2023-03-04T12:52:04.075Z,5.85
2023-03-04T12:54:38.618Z,1.75
2023-03-04T12:57:23.919Z,14.07
2023-03-04T12:59:56.157Z,5.15
2023-03-04T13:03:02.351Z,2.33
2023-03-04T13:05:52.312Z,1.30
2023-03-04T13:08:29.166Z,5.15
2023-03-04T13:11:26.638Z,3.35
2023-03-04T13:14:06.178Z,2.72
2023-03-04T13:16:42.368Z,0.82
2023-03-04T13:19:43.475Z,0.70
2023-03-04T13:22:33.261Z,2.30
2023-03-04T13:25:27.010Z,2.22
2023-03-04T13:28:07.349Z,3.13
2023-03-04T13:30:36.337Z,3.35
2023-03-04T13:33:35.878Z,2.15
2023-03-04T13:36:34.626Z,2.55
2023-03-04T13:39:28.913Z,2.67
2023-03-04T13:41:57.831Z,2.65
2023-03-04T13:44:47.996Z,3.80
2023-03-04T13:47:30.771Z,1.83
2023-03-04T13:50:38.153Z,2.10
2023-03-04T13:53:43.666Z,1.80
2023-03-04T13:56:29.607Z,2.40
2023-03-04T13:59:07.284Z,1.90
2023-03-04T14:01:57.455Z,5.65
2023-03-04T14:04:40.994Z,4.32
2023-03-04T14:07:21.808Z,2.05
2023-03-04T14:10:07.612Z,5.13
2023-03-04T14:12:42.345Z,2.75
2023-03-04T14:15:14.094Z,1.95
2023-03-04T14:17:57.329Z,1.08
2023-03-04T14:20:34.258Z,4.82
2023-03-04T14:23:05.419Z,1.33
2023-03-04T14:25:37.057Z,3.17
2023-03-04T14:28:10.037Z,0.77
2023-03-04T14:30:43.234Z,4.75
2023-03-04T14:33:19.442Z,4.78
2023-03-04T14:35:51.726Z,3.83
2023-03-04T14:38:26.784Z,6.50
2023-03-04T14:41:18.232Z,3.20
2023-03-04T14:43:56.316Z,2.75
2023-03-04T14:46:30.058Z,2.72
2023-03-04T14:48:59.288Z,1.80
2023-03-04T14:51:37.940Z,6.93
2023-03-04T14:54:07.106Z,3.58
2023-03-04T14:56:36.990Z,0.77
2023-03-04T14:59:05.371Z,2.20
2023-03-04T15:01:35.669Z,2.58
2023-03-04T15:04:08.454Z,0.65
2023-03-04T15:06:40.581Z,7.03
2023-03-04T15:09:22.767Z,1.60
2023-03-04T15:11:55.350Z,1.17
2023-03-04T15:14:52.867Z,1.45
2023-03-04T15:17:41.403Z,1.05
2023-03-04T15:20:09.923Z,1.58
2023-03-04T15:22:44.852Z,2.13
2023-03-04T15:25:38.358Z,2.15
2023-03-04T15:28:13.049Z,4.03
2023-03-04T15:30:41.336Z,2.80
2023-03-04T15:33:13.728Z,2.95
2023-03-04T15:38:14.806Z,1.88
2023-03-04T15:40:43.421Z,1.13
2023-03-04T15:43:33.090Z,2.45
2023-03-04T15:46:02.035Z,1.95
2023-03-04T15:48:30.996Z,2.22
2023-03-04T15:51:03.524Z,3.08
2023-03-04T15:53:35.910Z,3.45
2023-03-04T16:01:54.365Z,2.90
2023-03-04T16:04:35.894Z,0.50
2023-03-04T16:07:06.591Z,2.05
2023-03-04T16:09:35.591Z,1.90
2023-03-04T16:12:04.330Z,4.43
2023-03-04T16:14:33.018Z,4.90
2023-03-04T16:17:26.448Z,3.20
2023-03-04T16:19:55.157Z,2.25
2023-03-04T16:22:54.800Z,1.60
2023-03-04T16:29:11.807Z,1.73
2023-03-04T16:31:45.022Z,3.55
2023-03-04T16:34:13.732Z,4.07
2023-03-04T16:37:32.279Z,6.50
2023-03-04T16:40:09.579Z,1.75
2023-03-04T16:42:42.105Z,7.10
2023-03-04T16:45:20.803Z,4.85
2023-03-04T16:48:17.511Z,5.10
2023-03-04T16:50:47.871Z,5.43
2023-03-04T16:53:28.938Z,8.05
2023-03-04T16:56:27.876Z,4.97
2023-03-04T17:02:57.798Z,8.10
2023-03-04T17:05:31.994Z,4.32
2023-03-04T17:11:30.326Z,3.13
2023-03-04T17:13:58.739Z,9.00
2023-03-04T17:17:26.516Z,4.07
2023-03-04T17:19:56.244Z,1.95
2023-03-04T17:22:51.443Z,4.85
2023-03-04T17:29:25.527Z,2.70
2023-03-04T17:35:19.047Z,3.03
2023-03-04T17:42:03.818Z,2.45
2023-03-04T17:44:32.321Z,2.83
2023-03-04T17:47:32.912Z,4.50
2023-03-04T17:50:02.125Z,4.03
2023-03-04T17:52:56.783Z,2.28
2023-03-04T17:55:25.093Z,3.40
2023-03-04T17:57:56.054Z,3.38
2023-03-04T18:00:31.732Z,4.88
2023-03-04T18:03:00.262Z,5.25
2023-03-04T18:05:28.487Z,5.53
2023-03-04T18:08:50.899Z,5.20
2023-03-04T18:11:27.432Z,5.60
2023-03-04T18:14:49.456Z,4.72
2023-03-04T18:17:17.816Z,4.53
2023-03-04T18:19:46.537Z,5.60
2023-03-04T18:22:15.016Z,2.55
2023-03-04T18:24:43.989Z,4.18
2023-03-04T18:27:12.360Z,5.07
2023-03-04T18:29:40.970Z,4.88
2023-03-04T18:32:09.439Z,5.25
2023-03-04T18:34:38.168Z,9.07
2023-03-04T18:37:06.566Z,11.23
2023-03-04T18:40:00.921Z,3.08
2023-03-04T18:42:29.536Z,3.10
2023-03-04T18:44:59.751Z,5.30
2023-03-04T18:47:33.185Z,2.85
2023-03-04T18:50:01.993Z,8.82
2023-03-04T18:52:30.248Z,7.85
2023-03-04T18:55:24.942Z,4.15
2023-03-04T18:58:01.661Z,5.15
2023-03-04T19:00:30.882Z,7.50
2023-03-04T19:03:11.571Z,19.73
2023-03-04T19:05:45.828Z,21.45
2023-03-04T19:08:17.869Z,6.72
2023-03-04T19:11:04.828Z,10.57
2023-03-04T19:13:34.192Z,3.83
2023-03-04T19:16:30.626Z,8.55
2023-03-04T19:19:32.176Z,12.07
2023-03-04T21:06:54.132Z,28.48
2023-03-04T21:41:31.826Z,11.93
2023-03-04T21:44:48.170Z,15.93
2023-03-04T21:51:19.471Z,24.55
2023-03-04T21:54:15.073Z,43.55
2023-03-04T23:08:00.880Z,16.88
2023-03-04T23:11:08.187Z,12.05
2023-03-04T23:14:25.195Z,14.88
2023-03-04T23:21:09.175Z,6.88
2023-03-04T23:23:39.311Z,13.57
2023-03-04T23:26:32.388Z,12.50
2023-03-04T23:29:09.192Z,11.82
2023-03-04T23:31:39.217Z,16.98
2023-03-04T23:34:11.456Z,14.05
2023-03-04T23:36:41.661Z,15.70
2023-03-04T23:39:17.273Z,13.38
2023-03-04T23:41:46.409Z,11.98
2023-03-04T23:44:22.961Z,9.32
2023-03-04T23:46:54.295Z,15.98
2023-03-04T23:49:24.281Z,11.02
2023-03-04T23:51:52.712Z,10.95
2023-03-04T23:54:21.433Z,13.80
2023-03-04T23:56:53.764Z,13.80
2023-03-04T23:59:29.753Z,7.88
